Time;durP1;ratioP1;P1;durP2;ratioP2;P2;SDS_P1;SDS_P2;PMS_P1;PMS_P2;Temp;Humidity;BMP_temperature;BMP_pressure;BME280_temperature;BME280_humidity;BME280_pressure;Samples;Min_cycle;Max_cycle;Signal;HPM_P1;HPM_P2
2024/01/28 00:00:20;;;;;;;6.60;3.70;;;;;;;0.60;79.88;94514.66;2030182;70;20171;-79
2024/01/28 00:02:46;;;;;;;5.30;3.55;;;;;;;0.48;78.87;94510.34;2028441;70;20153;-80
2024/01/28 00:05:13;;;;;;;5.72;3.45;;;;;;;0.44;79.00;94516.13;2021794;70;20155;-79
2024/01/28 00:07:39;;;;;;;6.07;3.58;;;;;;;0.29;79.46;94504.53;2021494;71;20179;-79
2024/01/28 00:10:06;;;;;;;8.10;3.13;;;;;;;0.40;80.57;94503.78;2024454;71;20244;-79
2024/01/28 00:12:33;;;;;;;4.57;2.72;;;;;;;0.50;79.95;94503.06;2024219;71;20176;-79
2024/01/28 00:14:59;;;;;;;7.30;3.05;;;;;;;0.42;79.71;94498.50;2021041;71;20614;-79
2024/01/28 00:17:24;;;;;;;4.32;2.90;;;;;;;0.60;79.54;94491.75;2024502;71;20165;-79
2024/01/28 00:19:51;;;;;;;4.60;2.33;;;;;;;0.65;79.93;94490.97;2024643;71;20275;-79
2024/01/28 00:22:17;;;;;;;3.10;2.00;;;;;;;0.74;79.84;94488.72;2024448;71;20155;-79
2024/01/28 00:24:44;;;;;;;3.78;2.38;;;;;;;0.46;79.25;94487.94;2024188;71;20129;-79
2024/01/28 00:27:10;;;;;;;3.78;2.10;;;;;;;0.49;79.71;94493.22;2020931;71;20153;-78
2024/01/28 00:29:35;;;;;;;3.08;1.80;;;;;;;0.59;80.02;94490.94;2024226;71;20217;-78
2024/01/28 00:32:02;;;;;;;2.90;1.95;;;;;;;0.63;80.00;94490.72;2024267;71;20641;-78
2024/01/28 00:34:28;;;;;;;2.65;1.70;;;;;;;0.70;79.90;94496.53;2024156;71;20141;-78
2024/01/28 00:36:54;;;;;;;7.15;3.20;;;;;;;0.74;78.68;94488.72;2023485;71;20137;-78
2024/01/28 00:39:19;;;;;;;7.88;3.95;;;;;;;0.69;78.52;94497.03;2018269;71;20164;-78
2024/01/28 00:41:45;;;;;;;5.47;2.90;;;;;;;0.72;78.35;94488.44;2020974;71;20610;-79
2024/01/28 00:44:11;;;;;;;6.45;3.67;;;;;;;0.63;78.13;94497.00;2024328;71;20179;-79
2024/01/28 00:46:39;;;;;;;5.28;3.00;;;;;;;0.49;77.96;94495.97;2024294;71;20200;-79
2024/01/28 00:49:05;;;;;;;5.53;3.20;;;;;;;0.40;77.93;94492.69;2021356;71;20160;-79
2024/01/28 00:51:33;;;;;;;6.07;3.38;;;;;;;0.38;78.37;94495.97;2023992;71;20185;-78
2024/01/28 00:53:59;;;;;;;6.53;3.83;;;;;;;0.23;78.78;94484.38;2024226;71;20240;-78
2024/01/28 00:56:26;;;;;;;7.55;4.28;;;;;;;0.39;78.72;94496.72;2024331;71;20177;-78
2024/01/28 00:58:53;;;;;;;8.95;3.78;;;;;;;0.41;78.79;94500.53;2024565;71;20237;-79
2024/01/28 01:01:19;;;;;;;6.18;3.50;;;;;;;0.42;78.96;94504.81;2024823;71;20613;-79
2024/01/28 01:03:45;;;;;;;6.82;3.50;;;;;;;0.39;78.63;94488.41;2024942;71;20141;-79
2024/01/28 01:06:10;;;;;;;6.07;3.55;;;;;;;0.30;78.36;94480.34;2024722;71;20614;-79
2024/01/28 01:08:37;;;;;;;6.88;3.00;;;;;;;0.37;78.50;94482.63;2024795;70;20229;-79
2024/01/28 01:11:05;;;;;;;6.38;3.20;;;;;;;0.41;78.62;94483.91;2024846;70;20133;-79
2024/01/28 01:13:33;;;;;;;5.43;2.75;;;;;;;0.47;78.71;94492.22;2028389;70;20506;-79
2024/01/28 01:15:59;;;;;;;5.40;2.70;;;;;;;0.35;78.63;94488.66;2028489;70;20184;-79
2024/01/28 01:18:25;;;;;;;4.28;2.45;;;;;;;0.22;78.31;94499.47;2028274;70;20212;-79
2024/01/28 01:20:51;;;;;;;3.95;2.38;;;;;;;0.16;78.64;94495.94;2028362;70;20590;-78
2024/01/28 01:23:17;;;;;;;4.45;2.50;;;;;;;0.19;78.65;94501.22;2028179;70;20152;-78
2024/01/28 01:25:42;;;;;;;4.25;2.13;;;;;;;0.20;78.05;94502.75;2028075;70;20163;-78
2024/01/28 01:28:09;;;;;;;3.90;2.70;;;;;;;0.03;78.96;94501.94;2028144;70;20251;-78
2024/01/28 01:30:35;;;;;;;4.43;2.70;;;;;;;-0.04;78.60;94496.88;2027762;70;20240;-79
2024/01/28 01:33:02;;;;;;;4.90;2.88;;;;;;;0.13;79.16;94505.22;2028216;70;20628;-79
2024/01/28 01:35:27;;;;;;;6.80;3.20;;;;;;;0.08;79.38;94503.19;2028125;70;20156;-79
2024/01/28 01:37:56;;;;;;;5.35;2.97;;;;;;;0.20;79.10;94508.28;2028253;70;20152;-79
2024/01/28 01:40:21;;;;;;;6.68;3.72;;;;;;;0.05;79.43;94498.69;2028177;70;20204;-79
2024/01/28 01:42:47;;;;;;;5.10;3.40;;;;;;;0.00;79.64;94500.16;2028257;70;20227;-79
2024/01/28 01:45:13;;;;;;;5.18;3.28;;;;;;;-0.03;79.33;94485.28;2028310;70;20612;-78
2024/01/28 01:47:40;;;;;;;8.20;3.83;;;;;;;-0.01;79.04;94484.78;2028242;70;20209;-79
2024/01/28 01:50:12;;;;;;;4.88;3.00;;;;;;;-0.02;79.05;94488.81;2028207;70;20172;-79
2024/01/28 01:52:42;;;;;;;;;;;;;;;-0.01;79.37;94485.53;2028490;70;20148;-79
2024/01/28 01:55:09;;;;;;;6.97;3.50;;;;;;;0.07;79.27;94482.31;2028202;70;20080;-78
2024/01/28 01:57:39;;;;;;;6.15;3.35;;;;;;;-0.04;79.29;94485.81;2028241;70;20606;-79
2024/01/28 02:00:06;;;;;;;5.47;2.85;;;;;;;-0.02;79.03;94486.06;2028138;70;20224;-78
2024/01/28 02:02:33;;;;;;;5.55;2.88;;;;;;;-0.11;78.76;94480.72;2028071;70;20167;-78
2024/01/28 02:05:00;;;;;;;4.78;2.40;;;;;;;-0.20;78.05;94480.94;2028100;70;20293;-78
2024/01/28 02:07:26;;;;;;;2.97;2.17;;;;;;;-0.27;78.66;94482.19;2028042;70;20133;-79
2024/01/28 02:09:52;;;;;;;3.05;2.20;;;;;;;-0.36;79.49;94479.63;2025077;70;20152;-79
2024/01/28 02:12:17;;;;;;;3.60;2.25;;;;;;;-0.18;79.30;94478.44;2027975;70;20149;-79
2024/01/28 02:14:43;;;;;;;2.83;2.10;;;;;;;-0.16;79.44;94482.22;2028154;70;20172;-79
2024/01/28 02:17:08;;;;;;;2.92;1.95;;;;;;;-0.15;79.28;94480.22;2028165;70;20152;-79
2024/01/28 02:19:34;;;;;;;3.08;1.92;;;;;;;-0.26;78.60;94475.41;2025050;70;20597;-79
2024/01/28 02:21:59;;;;;;;3.35;2.00;;;;;;;-0.23;79.01;94476.41;2028138;70;20248;-79
2024/01/28 02:24:25;;;;;;;6.18;2.10;;;;;;;-0.22;78.82;94478.69;2025041;70;20148;-79
2024/01/28 02:26:51;;;;;;;3.50;2.00;;;;;;;-0.31;78.17;94479.66;2028215;70;20160;-79
2024/01/28 02:29:17;;;;;;;3.72;2.33;;;;;;;-0.46;78.43;94472.78;2028173;70;20172;-79
2024/01/28 02:31:45;;;;;;;3.60;2.25;;;;;;;-0.44;78.24;94473.06;2028231;70;20260;-79
2024/01/28 02:34:11;;;;;;;2.85;2.15;;;;;;;-0.39;78.85;94461.25;2028107;70;20204;-79
2024/01/28 02:36:37;;;;;;;2.90;1.85;;;;;;;-0.36;78.28;94461.03;2028164;70;20180;-79
2024/01/28 02:39:04;;;;;;;4.05;2.17;;;;;;;-0.39;78.86;94466.78;2027900;70;20610;-79
2024/01/28 02:41:29;;;;;;;3.55;1.88;;;;;;;-0.38;78.41;94462.75;2028062;70;20232;-79
2024/01/28 02:43:55;;;;;;;3.28;2.17;;;;;;;-0.42;79.09;94456.69;2027920;70;20520;-79
2024/01/28 02:46:20;;;;;;;3.45;1.90;;;;;;;-0.39;79.04;94453.72;2028195;70;20316;-79
2024/01/28 02:48:47;;;;;;;2.92;1.92;;;;;;;-0.41;79.14;94453.47;2028118;70;20518;-78
2024/01/28 02:51:13;;;;;;;4.82;2.03;;;;;;;-0.47;79.15;94444.34;2027791;70;20151;-79
2024/01/28 02:53:38;;;;;;;3.35;1.92;;;;;;;-0.53;78.12;94451.88;2027599;70;20149;-79
2024/01/28 02:56:05;;;;;;;2.50;1.70;;;;;;;-0.47;78.29;94438.81;2028259;70;20148;-79
2024/01/28 02:58:31;;;;;;;4.32;1.80;;;;;;;-0.54;78.65;94453.16;2027704;70;20172;-80
2024/01/28 03:00:57;;;;;;;3.03;2.17;;;;;;;-0.48;79.32;94450.41;2028252;70;20152;-79
2024/01/28 03:03:23;;;;;;;3.58;2.00;;;;;;;-0.48;78.12;94439.31;2028297;70;20144;-79
2024/01/28 03:05:48;;;;;;;3.70;2.60;;;;;;;-0.49;78.08;94446.88;2028112;70;20157;-79
2024/01/28 03:08:14;;;;;;;2.63;1.80;;;;;;;-0.46;78.88;94448.63;2028199;70;20581;-79
2024/01/28 03:10:40;;;;;;;2.03;1.80;;;;;;;-0.51;78.62;94447.34;2028183;70;20237;-78
2024/01/28 03:13:05;;;;;;;2.45;2.00;;;;;;;-0.56;78.70;94445.31;2028073;70;20259;-79
2024/01/28 03:15:31;;;;;;;4.07;2.30;;;;;;;-0.61;78.55;94435.00;2027991;70;20242;-79
2024/01/28 03:17:57;;;;;;;3.38;1.88;;;;;;;-0.68;78.26;94441.00;2027864;70;20189;-78
2024/01/28 03:20:25;;;;;;;3.38;2.17;;;;;;;-0.63;77.86;94443.03;2027970;70;20156;-79
2024/01/28 03:22:51;;;;;;;3.22;2.00;;;;;;;-0.57;78.03;94443.81;2028206;70;20693;-78
2024/01/28 03:25:16;;;;;;;2.15;1.85;;;;;;;-0.58;78.14;94444.31;2027906;70;20145;-79
2024/01/28 03:27:42;;;;;;;4.10;2.15;;;;;;;-0.65;78.58;94439.25;2024946;70;20136;-79
2024/01/28 03:30:08;;;;;;;2.50;1.90;;;;;;;-0.73;79.12;94422.38;2028180;70;20797;-79
2024/01/28 03:32:34;;;;;;;2.60;1.67;;;;;;;-0.62;78.42;94439.03;2028167;70;20156;-79
2024/01/28 03:35:03;;;;;;;3.35;1.95;;;;;;;-0.69;78.89;94433.19;2027973;70;20271;-79
2024/01/28 03:37:28;;;;;;;2.20;1.80;;;;;;;-0.58;78.53;94441.56;2028039;70;20164;-79
2024/01/28 03:39:54;;;;;;;2.00;1.40;;;;;;;-0.77;78.04;94414.31;2027880;70;20951;-79
2024/01/28 03:42:23;;;;;;;2.05;1.52;;;;;;;-0.70;78.42;94446.25;2028126;70;20266;-79
2024/01/28 03:44:49;;;;;;;2.03;1.83;;;;;;;-0.67;78.71;94436.97;2027859;70;20161;-78
2024/01/28 03:47:15;;;;;;;2.33;1.70;;;;;;;-0.75;78.12;94437.94;2027973;70;20602;-78
2024/01/28 03:49:41;;;;;;;2.38;1.70;;;;;;;-0.81;78.42;94430.38;2025547;70;20181;-77
2024/01/28 03:52:07;;;;;;;3.45;1.58;;;;;;;-0.84;78.33;94434.13;2024071;71;20191;-78
2024/01/28 03:54:32;;;;;;;2.58;1.73;;;;;;;-0.77;77.90;94436.44;2024707;71;20145;-78
2024/01/28 03:56:59;;;;;;;2.55;1.60;;;;;;;-0.80;78.02;94434.66;2021552;71;20210;-77
2024/01/28 03:59:25;;;;;;;2.03;1.60;;;;;;;-0.71;78.56;94436.47;2024788;71;20148;-78
2024/01/28 04:01:50;;;;;;;2.78;1.40;;;;;;;-0.81;78.15;94427.63;2024791;71;20145;-78
2024/01/28 04:04:16;;;;;;;2.25;1.48;;;;;;;-0.81;78.08;94430.38;2024658;71;20190;-78
2024/01/28 04:06:46;;;;;;;2.75;1.45;;;;;;;-0.80;78.10;94431.13;2024651;71;20378;-79
2024/01/28 04:09:13;;;;;;;4.30;1.50;;;;;;;-0.92;77.42;94429.53;2024829;71;20165;-79
2024/01/28 04:11:38;;;;;;;1.58;1.20;;;;;;;-0.84;77.82;94423.06;2024777;71;20180;-78
2024/01/28 04:14:04;;;;;;;3.47;1.42;;;;;;;-0.84;78.34;94423.06;2021599;71;20218;-81
2024/01/28 04:16:31;;;;;;;1.35;1.25;;;;;;;-0.79;78.46;94427.88;2024803;71;20147;-78
2024/01/28 04:18:57;;;;;;;2.53;1.50;;;;;;;-0.94;78.10;94427.28;2024757;71;20599;-78
2024/01/28 04:21:26;;;;;;;2.72;1.67;;;;;;;-0.97;77.83;94427.50;2024734;71;20156;-78
2024/01/28 04:23:52;;;;;;;3.30;2.03;;;;;;;-0.96;77.53;94424.28;2024949;71;20169;-78
2024/01/28 04:26:18;;;;;;;2.70;1.88;;;;;;;-1.02;77.36;94435.28;2024833;71;20625;-78
2024/01/28 04:28:46;;;;;;;3.92;1.80;;;;;;;-1.02;77.57;94417.94;2024749;71;20145;-78
2024/01/28 04:31:13;;;;;;;2.80;1.83;;;;;;;-0.96;78.32;94429.00;2021611;71;20215;-78
2024/01/28 04:33:39;;;;;;;2.33;1.90;;;;;;;-0.96;78.13;94423.50;2024847;71;20210;-78
2024/01/28 04:36:05;;;;;;;3.20;2.30;;;;;;;-0.99;78.31;94414.19;2025294;71;20239;-78
2024/01/28 04:38:31;;;;;;;3.22;1.80;;;;;;;-1.05;78.32;94414.16;2025411;71;20204;-79
2024/01/28 04:40:57;;;;;;;4.28;2.10;;;;;;;-1.10;78.17;94412.13;2025368;71;20259;-78
2024/01/28 04:43:22;;;;;;;3.83;2.30;;;;;;;-1.08;78.75;94423.44;2025238;71;20649;-78
2024/01/28 04:45:49;;;;;;;7.43;2.97;;;;;;;-1.09;79.36;94427.47;2025265;71;20161;-78
2024/01/28 04:48:15;;;;;;;8.48;4.80;;;;;;;-1.04;78.55;94414.91;2025284;71;20224;-78
2024/01/28 04:50:41;;;;;;;3.55;2.88;;;;;;;-0.95;78.47;94416.72;2022015;71;20228;-78
2024/01/28 04:53:07;;;;;;;3.83;2.80;;;;;;;-1.05;78.11;94416.19;2025464;71;20164;-78
2024/01/28 04:55:34;;;;;;;3.45;2.20;;;;;;;-1.08;77.44;94408.84;2025325;70;20188;-78
2024/01/28 04:57:59;;;;;;;3.17;2.08;;;;;;;-1.06;77.79;94407.09;2024767;71;20151;-78
2024/01/28 05:00:25;;;;;;;4.82;2.30;;;;;;;-1.09;78.82;94416.41;2025355;71;20280;-79
2024/01/28 05:02:50;;;;;;;1.23;1.10;;;;;;;-0.98;78.77;94412.94;2025204;71;20135;-78
2024/01/28 05:05:16;;;;;;;2.05;1.13;;;;;;;-0.83;78.34;94410.00;2025345;71;20502;-78
2024/01/28 05:07:41;;;;;;;4.20;2.10;;;;;;;-1.18;78.66;94416.59;2025110;71;20163;-78
2024/01/28 05:10:09;;;;;;;3.83;2.38;;;;;;;-1.27;78.72;94421.56;2025187;71;20164;-78
2024/01/28 05:12:34;;;;;;;3.40;2.28;;;;;;;-1.06;78.11;94420.91;2022018;71;20157;-79
2024/01/28 05:15:01;;;;;;;5.03;2.90;;;;;;;-1.11;77.70;94412.59;2025106;71;20157;-78
2024/01/28 05:17:26;;;;;;;5.60;3.00;;;;;;;-1.04;77.68;94432.25;2025205;71;20599;-78
2024/01/28 05:19:52;;;;;;;5.80;3.42;;;;;;;-1.16;77.03;94427.91;2025087;71;20185;-78
2024/01/28 05:22:19;;;;;;;4.93;2.40;;;;;;;-1.09;77.75;94429.47;2025045;71;20149;-78
2024/01/28 05:24:49;;;;;;;6.10;2.33;;;;;;;-1.14;77.89;94427.44;2025378;71;20243;-78
2024/01/28 05:27:16;;;;;;;7.38;3.08;;;;;;;-1.21;77.12;94430.63;2025241;71;20148;-78
2024/01/28 05:29:41;;;;;;;8.02;3.10;;;;;;;-1.20;77.26;94430.13;2025236;71;20156;-79
2024/01/28 05:32:08;;;;;;;8.35;3.00;;;;;;;-1.14;77.19;94433.72;2025301;71;20145;-78
2024/01/28 05:34:34;;;;;;;9.38;3.28;;;;;;;-1.40;77.04;94428.25;2025183;71;20238;-78
2024/01/28 05:36:59;;;;;;;8.55;4.10;;;;;;;-1.50;78.48;94437.22;2025066;71;20161;-78
2024/01/28 05:39:25;;;;;;;14.18;5.95;;;;;;;-1.32;78.31;94443.13;2025421;71;20145;-79
2024/01/28 05:41:51;;;;;;;12.55;5.50;;;;;;;-1.19;77.97;94433.66;2025094;71;20229;-78
2024/01/28 05:44:16;;;;;;;9.82;5.05;;;;;;;-1.18;77.99;94440.72;2025071;71;20165;-78
2024/01/28 05:46:42;;;;;;;8.25;4.55;;;;;;;-1.22;78.00;94432.66;2024996;71;20165;-78
2024/01/28 05:49:11;;;;;;;9.63;4.85;;;;;;;-1.24;77.90;94437.13;2025207;71;20143;-78
2024/01/28 05:51:39;;;;;;;11.13;4.88;;;;;;;-1.21;77.80;94436.91;2021970;71;20214;-78
2024/01/28 05:54:07;;;;;;;8.18;3.10;;;;;;;-1.23;77.33;94441.44;2025221;71;20549;-78
2024/01/28 05:56:33;;;;;;;7.28;3.08;;;;;;;-1.21;78.12;94431.38;2025335;71;20173;-78
2024/01/28 05:58:59;;;;;;;6.75;3.38;;;;;;;-1.20;77.30;94432.91;2025317;71;20189;-78
2024/01/28 06:01:24;;;;;;;8.88;3.88;;;;;;;-1.30;77.91;94439.88;2025187;71;20165;-78
2024/01/28 06:03:50;;;;;;;6.28;3.35;;;;;;;-1.31;77.14;94441.13;2025137;70;20169;-78
2024/01/28 06:06:15;;;;;;;5.03;2.78;;;;;;;-1.19;77.69;94448.25;2025053;71;20147;-78
2024/01/28 06:08:42;;;;;;;3.55;2.13;;;;;;;-1.22;77.67;94443.69;2025124;71;20161;-78
2024/01/28 06:11:07;;;;;;;7.20;2.65;;;;;;;-1.27;77.82;94440.91;2025169;71;20183;-78
2024/01/28 06:13:33;;;;;;;7.18;3.60;;;;;;;-1.35;77.99;94444.09;2025275;71;20172;-78
2024/01/28 06:15:59;;;;;;;6.78;3.60;;;;;;;-1.36;78.02;94444.59;2025251;71;20652;-78
2024/01/28 06:18:24;;;;;;;5.47;2.85;;;;;;;-1.38;77.79;94442.31;2025112;71;20163;-78
2024/01/28 06:20:50;;;;;;;5.20;3.00;;;;;;;-1.41;77.06;94440.56;2025016;71;20152;-78
2024/01/28 06:23:16;;;;;;;31.85;13.65;;;;;;;-1.37;77.52;94443.09;2025141;71;20210;-77
2024/01/28 06:25:42;;;;;;;9.60;4.47;;;;;;;-1.49;77.34;94442.25;2025116;71;20185;-78
2024/01/28 06:28:07;;;;;;;7.32;3.75;;;;;;;-1.45;76.93;94450.31;2025068;71;20162;-78
2024/01/28 06:30:35;;;;;;;6.05;3.42;;;;;;;-1.41;77.74;94448.84;2024568;71;20157;-79
2024/01/28 06:33:02;;;;;;;8.02;3.60;;;;;;;-1.46;77.73;94455.09;2025141;71;20137;-78
2024/01/28 06:35:28;;;;;;;10.15;4.63;;;;;;;-1.62;77.62;94441.88;2025039;71;20172;-79
2024/01/28 06:37:54;;;;;;;6.63;3.97;;;;;;;-1.39;77.98;94445.56;2025074;71;20607;-78
2024/01/28 06:40:20;;;;;;;13.98;6.22;;;;;;;-1.54;77.60;94438.19;2021869;71;20157;-80
2024/01/28 06:42:45;;;;;;;15.38;5.78;;;;;;;-1.48;77.89;94452.03;2025065;71;20153;-80
2024/01/28 06:45:12;;;;;;;43.55;13.07;;;;;;;-1.42;77.56;94447.34;2021800;71;20549;-79
2024/01/28 06:47:37;;;;;;;20.98;8.35;;;;;;;-1.39;77.75;94445.56;2025023;71;20157;-79
2024/01/28 06:50:04;;;;;;;21.38;8.80;;;;;;;-1.54;77.97;94446.47;2025092;71;20137;-78
2024/01/28 06:52:29;;;;;;;55.13;20.65;;;;;;;-1.37;77.48;94438.31;2025207;71;20666;-79
2024/01/28 06:54:55;;;;;;;59.95;21.20;;;;;;;-1.37;77.96;94435.56;2025085;71;20133;-78
2024/01/28 06:57:21;;;;;;;53.83;20.27;;;;;;;-1.42;77.93;94438.25;2024971;71;20614;-77
2024/01/28 06:59:46;;;;;;;67.60;24.75;;;;;;;-1.42;77.84;94444.56;2025017;71;20151;-78
2024/01/28 07:02:12;;;;;;;57.17;21.35;;;;;;;-1.32;77.79;94458.97;2025088;71;20561;-78
2024/01/28 07:04:39;;;;;;;45.75;17.58;;;;;;;-1.46;77.42;94435.75;2025151;71;20161;-78
2024/01/28 07:07:05;;;;;;;34.97;13.70;;;;;;;-1.37;77.74;94441.09;2024919;71;20210;-79
2024/01/28 07:09:31;;;;;;;29.70;12.57;;;;;;;-1.40;77.11;94455.88;2025257;71;20161;-77
2024/01/28 07:11:57;;;;;;;30.25;12.88;;;;;;;-1.35;77.63;94449.63;2025030;71;20156;-76
2024/01/28 07:14:23;;;;;;;31.38;12.88;;;;;;;-1.40;77.41;94450.34;2025069;71;20145;-78
2024/01/28 07:16:49;;;;;;;33.55;12.70;;;;;;;-1.41;76.95;94445.31;2024964;71;20164;-77
2024/01/28 07:19:15;;;;;;;30.50;12.20;;;;;;;-1.35;77.33;94452.38;2024906;71;20674;-76
2024/01/28 07:21:41;;;;;;;28.42;12.02;;;;;;;-1.33;77.37;94452.69;2024775;71;20164;-77
2024/01/28 07:24:07;;;;;;;28.63;11.38;;;;;;;-1.27;77.24;94446.44;2025242;71;20161;-77
2024/01/28 07:26:32;;;;;;;23.85;10.10;;;;;;;-1.35;77.07;94449.63;2025011;71;20163;-78
2024/01/28 07:28:58;;;;;;;22.33;10.05;;;;;;;-1.26;77.47;94454.22;2025090;71;20148;-77
2024/01/28 07:31:23;;;;;;;19.52;9.40;;;;;;;-1.25;77.72;94446.69;2025017;71;20152;-77
2024/01/28 07:33:49;;;;;;;18.83;8.55;;;;;;;-1.15;77.52;94457.03;2024948;71;20225;-77
2024/01/28 07:36:16;;;;;;;24.02;10.75;;;;;;;-1.38;77.91;94456.13;2024278;71;20160;-78
2024/01/28 07:38:42;;;;;;;21.80;10.25;;;;;;;-1.31;78.20;94450.16;2025067;71;20153;-78
2024/01/28 07:41:14;;;;;;;21.65;10.13;;;;;;;-1.48;78.37;94448.50;2024344;71;20160;-78
2024/01/28 07:43:43;;;;;;;21.38;9.43;;;;;;;-1.36;77.86;94450.88;2024848;71;20521;-79
2024/01/28 07:46:09;;;;;;;19.20;9.80;;;;;;;-1.23;78.33;94447.72;2024852;71;20198;-79
2024/01/28 07:48:35;;;;;;;18.85;8.77;;;;;;;-1.05;77.38;94452.13;2024808;71;20176;-78
2024/01/28 07:51:02;;;;;;;17.27;8.32;;;;;;;-1.11;77.46;94449.28;2024907;71;20157;-78
2024/01/28 07:53:28;;;;;;;19.02;8.75;;;;;;;-1.01;77.67;94455.38;2024925;71;20153;-78
2024/01/28 07:55:54;;;;;;;18.17;8.98;;;;;;;-1.02;77.05;94457.38;2024872;71;20148;-78
2024/01/28 07:58:19;;;;;;;19.67;8.45;;;;;;;-1.05;77.26;94452.88;2025030;71;20202;-78
2024/01/28 08:00:46;;;;;;;13.38;7.05;;;;;;;-1.09;77.43;94457.09;2024774;71;20173;-78
2024/01/28 08:03:11;;;;;;;9.88;5.82;;;;;;;-1.12;77.49;94447.78;2024823;71;20262;-78
2024/01/28 08:05:37;;;;;;;18.98;8.75;;;;;;;-1.26;77.83;94456.22;2024689;71;20182;-78
2024/01/28 08:08:03;;;;;;;14.82;7.95;;;;;;;-1.04;77.64;94464.69;2024760;71;20157;-78
2024/01/28 08:10:28;;;;;;;16.98;7.85;;;;;;;-0.95;78.08;94467.25;2025338;71;20268;-78
2024/01/28 08:12:54;;;;;;;14.05;7.20;;;;;;;-0.97;77.43;94460.69;2022128;71;20148;-78
2024/01/28 08:15:20;;;;;;;13.55;7.20;;;;;;;-0.96;77.92;94456.66;2025385;71;20257;-78
2024/01/28 08:17:46;;;;;;;12.98;6.60;;;;;;;-0.82;77.74;94455.78;2025384;71;20173;-78
2024/01/28 08:20:11;;;;;;;14.00;6.85;;;;;;;-0.79;77.60;94447.22;2025262;71;20156;-78
2024/01/28 08:22:38;;;;;;;11.40;6.90;;;;;;;-0.80;77.64;94456.03;2025697;71;20586;-78
2024/01/28 08:25:04;;;;;;;12.90;7.20;;;;;;;-0.81;77.29;94454.50;2025491;71;20145;-78
2024/01/28 08:27:30;;;;;;;15.05;7.20;;;;;;;-0.78;77.60;94451.53;2025320;71;20511;-78
2024/01/28 08:29:56;;;;;;;12.30;7.22;;;;;;;-0.76;77.37;94456.56;2025300;71;20222;-79
2024/01/28 08:32:22;;;;;;;12.57;7.88;;;;;;;-0.94;77.40;94446.66;2025401;71;20181;-78
2024/01/28 08:34:49;;;;;;;12.30;7.10;;;;;;;-0.87;77.38;94440.66;2024828;71;20156;-78
2024/01/28 08:37:16;;;;;;;13.45;7.60;;;;;;;-1.01;78.20;94455.38;2025256;71;20157;-77
2024/01/28 08:39:42;;;;;;;21.02;10.93;;;;;;;-0.99;78.51;94465.97;2025372;71;20218;-78
2024/01/28 08:42:07;;;;;;;21.90;11.38;;;;;;;-0.90;78.70;94458.22;2025421;71;20633;-78
2024/01/28 08:44:33;;;;;;;19.08;11.48;;;;;;;-0.28;79.32;94458.53;2025234;71;20158;-77
2024/01/28 08:46:58;;;;;;;20.40;11.13;;;;;;;0.25;78.71;94454.91;2025339;71;20141;-78
2024/01/28 08:49:24;;;;;;;24.83;13.75;;;;;;;0.31;80.23;94460.44;2025299;71;20176;-77
2024/01/28 08:51:50;;;;;;;32.17;16.50;;;;;;;0.58;78.90;94445.09;2025192;71;20149;-77
2024/01/28 08:54:15;;;;;;;38.50;18.48;;;;;;;0.98;80.74;94459.72;2025448;71;20575;-77
2024/01/28 08:56:41;;;;;;;40.60;20.40;;;;;;;1.41;81.00;94462.91;2025459;71;20262;-77
2024/01/28 08:59:06;;;;;;;42.30;21.33;;;;;;;1.73;79.78;94460.53;2025327;71;20187;-77
2024/01/28 09:01:32;;;;;;;36.40;20.15;;;;;;;1.99;76.49;94457.41;2025242;71;20176;-77
2024/01/28 09:03:58;;;;;;;32.75;16.65;;;;;;;2.22;75.26;94458.03;2025275;71;20260;-77
2024/01/28 09:06:23;;;;;;;24.83;12.10;;;;;;;1.99;73.84;94459.44;2025171;71;20616;-77
2024/01/28 09:08:49;;;;;;;21.85;11.52;;;;;;;2.38;73.57;94453.63;2025227;71;20148;-78
2024/01/28 09:11:15;;;;;;;25.75;11.10;;;;;;;2.92;72.64;94452.25;2025323;71;20141;-78
2024/01/28 09:13:41;;;;;;;14.60;8.35;;;;;;;2.86;70.63;94459.88;2025311;71;20149;-78
2024/01/28 09:16:07;;;;;;;14.07;8.32;;;;;;;3.29;70.10;94448.88;2025244;70;20518;-78
2024/01/28 09:18:33;;;;;;;21.27;10.88;;;;;;;3.58;70.82;94457.72;2025467;71;20594;-78
2024/01/28 09:20:59;;;;;;;22.50;10.90;;;;;;;3.35;67.09;94448.84;2025106;71;20145;-78
2024/01/28 09:23:25;;;;;;;15.48;8.32;;;;;;;3.62;68.47;94450.56;2025320;71;20154;-78
2024/01/28 09:25:52;;;;;;;13.85;7.82;;;;;;;4.25;66.85;94445.72;2025186;71;20321;-78
2024/01/28 09:28:18;;;;;;;16.10;8.35;;;;;;;4.10;64.14;94440.59;2025192;71;20160;-78
2024/01/28 09:30:43;;;;;;;15.27;9.15;;;;;;;4.45;65.40;94436.09;2025235;71;20602;-78
2024/01/28 09:33:10;;;;;;;17.17;10.40;;;;;;;4.82;63.86;94447.19;2025209;71;20157;-78
2024/01/28 09:35:39;;;;;;;15.07;8.48;;;;;;;4.90;62.05;94438.94;2021815;71;20160;-78
2024/01/28 09:38:06;;;;;;;23.50;13.13;;;;;;;4.91;61.50;94436.91;2025194;71;20227;-78
2024/01/28 09:40:32;;;;;;;41.15;21.83;;;;;;;4.43;64.30;94433.81;2024689;71;20167;-78
2024/01/28 09:43:03;;;;;;;34.42;18.65;;;;;;;5.02;64.64;94439.50;2025146;71;20534;-78
2024/01/28 09:45:29;;;;;;;30.83;14.98;;;;;;;5.52;63.22;94444.22;2025175;71;20660;-78
2024/01/28 09:47:56;;;;;;;24.75;13.93;;;;;;;6.23;63.63;94445.41;2025211;71;20220;-78
2024/01/28 09:50:22;;;;;;;22.48;12.75;;;;;;;5.97;60.02;94440.59;2025136;71;20613;-78
2024/01/28 09:52:48;;;;;;;23.02;12.38;;;;;;;6.28;60.09;94444.53;2025226;70;20144;-79
2024/01/28 09:55:13;;;;;;;28.55;14.93;;;;;;;6.60;60.14;94438.75;2026895;71;20161;-79
2024/01/28 09:57:40;;;;;;;30.15;14.32;;;;;;;6.80;58.43;94433.72;2031266;71;20165;-79
2024/01/28 10:00:09;;;;;;;26.00;12.45;;;;;;;6.88;57.05;94424.09;2025617;71;20172;-79
2024/01/28 10:02:40;;;;;;;47.67;20.48;;;;;;;6.76;58.72;94434.06;2025154;71;20603;-79
2024/01/28 10:05:10;;;;;;;23.58;11.55;;;;;;;6.88;58.31;94421.31;2025205;71;20313;-79
2024/01/28 10:07:44;;;;;;;18.92;9.73;;;;;;;7.47;57.47;94423.69;2025077;71;20153;-79
2024/01/28 10:10:12;;;;;;;10.77;6.07;;;;;;;7.81;56.88;94417.91;2022048;71;20521;-79
2024/01/28 10:12:38;;;;;;;9.68;5.15;;;;;;;8.34;55.40;94425.09;2025138;71;20254;-79
2024/01/28 10:15:13;;;;;;;7.45;4.45;;;;;;;8.34;53.24;94420.25;2025103;71;20190;-79
2024/01/28 10:17:39;;;;;;;9.00;3.40;;;;;;;7.86;54.17;94408.59;2025119;71;20177;-79
2024/01/28 10:20:07;;;;;;;9.45;4.57;;;;;;;8.42;55.24;94417.47;2024936;71;20205;-79
2024/01/28 10:22:33;;;;;;;8.48;4.80;;;;;;;8.30;53.89;94417.03;2024835;71;20309;-79
2024/01/28 10:24:59;;;;;;;7.97;4.43;;;;;;;9.08;53.00;94410.34;2024880;71;20289;-78
2024/01/28 10:27:24;;;;;;;8.60;4.90;;;;;;;9.48;51.40;94412.59;2024900;71;20157;-78
2024/01/28 10:29:50;;;;;;;7.65;3.92;;;;;;;9.01;50.91;94402.63;2024416;71;20142;-78
2024/01/28 10:32:16;;;;;;;6.68;3.95;;;;;;;9.42;48.69;94396.66;2024800;71;20586;-77
2024/01/28 10:34:41;;;;;;;8.27;3.42;;;;;;;10.83;48.99;94405.66;2025194;71;20245;-78
2024/01/28 10:37:12;;;;;;;7.25;3.58;;;;;;;11.02;47.93;94393.88;2024923;71;20687;-78
2024/01/28 10:39:40;;;;;;;8.13;3.78;;;;;;;11.75;46.24;94400.06;2025111;71;20180;-78
2024/01/28 10:42:11;;;;;;;8.23;3.80;;;;;;;12.28;44.51;94393.16;2025068;71;20155;-77
2024/01/28 10:44:42;;;;;;;7.43;3.70;;;;;;;11.37;44.45;94391.94;2024954;71;20234;-78
2024/01/28 10:47:12;;;;;;;6.47;3.53;;;;;;;11.92;44.13;94388.84;2024982;71;20228;-78
2024/01/28 10:49:42;;;;;;;6.88;3.40;;;;;;;14.01;41.53;94379.69;2025173;71;20159;-78
2024/01/28 10:52:09;;;;;;;7.43;3.20;;;;;;;13.57;41.59;94384.25;2024995;71;20161;-77
2024/01/28 10:54:39;;;;;;;6.30;2.88;;;;;;;13.01;40.23;94377.72;2025019;71;20153;-78
2024/01/28 10:57:05;;;;;;;5.13;2.47;;;;;;;13.51;39.51;94377.34;2025033;71;20599;-78
2024/01/28 10:59:36;;;;;;;3.67;2.00;;;;;;;13.67;39.13;94376.50;2025156;71;20200;-79
2024/01/28 11:02:03;;;;;;;3.85;2.55;;;;;;;12.57;43.41;94367.94;2025106;71;20145;-79
2024/01/28 11:04:29;;;;;;;12.50;4.55;;;;;;;14.99;40.91;94377.00;2025093;71;20519;-80
2024/01/28 11:06:56;;;;;;;9.48;4.90;;;;;;;14.84;40.20;94371.63;2024925;71;20196;-80
2024/01/28 11:09:22;;;;;;;11.18;4.50;;;;;;;15.64;40.60;94377.97;2025153;71;20164;-80
2024/01/28 11:11:48;;;;;;;7.68;4.13;;;;;;;17.42;37.73;94378.19;2025030;71;20176;-80
2024/01/28 11:14:13;;;;;;;8.02;4.05;;;;;;;16.83;34.22;94369.50;2025120;71;20598;-79
2024/01/28 11:16:40;;;;;;;8.55;3.63;;;;;;;17.58;34.77;94362.06;2025114;71;20153;-79
2024/01/28 11:19:07;;;;;;;5.60;3.42;;;;;;;19.43;33.93;94366.38;2021812;71;20133;-78
2024/01/28 11:21:34;;;;;;;6.00;3.20;;;;;;;20.70;33.05;94359.38;2024394;71;20171;-79
2024/01/28 11:24:04;;;;;;;6.68;3.17;;;;;;;22.35;30.09;94366.31;2025014;71;20181;-78
2024/01/28 11:26:35;;;;;;;5.05;2.33;;;;;;;21.42;31.75;94357.09;2025045;71;20233;-78